Aviation Digital Data Service (ADDS)

Output produced by METARs form (1817 UTC 24 November 2017)
found at http://www.aviationweather.gov/adds/metars/
 
KSBY 241754Z 00000KT 10SM CLR 11/M02 A3003 RMK AO2 SLP171 T01061022 10106 21039 58026
KSBY 241724Z 2418/2518 00000KT P6SM SKC 
     FM250900 00000KT 5SM BR SKC 
     FM251300 22005KT P6SM SKC